Terminal Aerodrome Forecast
Issued by NWS Goodland, KS

Home | Current Version | Previous Version | Text Only | Print | Product List | Glossary On
Versions: 1 2 3 4 5 6 7 8 9 10 11 12 13 14 15 16 17 18 19
000
FTUS43 KGLD 251121
TAFGLD
TAF
KGLD 251121Z 2512/2612 VRB03KT P6SM BKN250
      TEMPO 2512/2515 SCT005
     FM252000 36008KT P6SM VCTS FEW050CB SCT110
     FM260300 07006KT P6SM SCT250
     FM260900 19006KT 6SM BR BKN010=

USA.gov is the U.S. government's official web portal to all federal, state and local government web resources and services.